Attica, IN

8:19 PM EDT on September 02, 2014 (GMT -0400)
Warren County, IN | Change Station
CLOSE
Current Station
Personal Weather Station
Location: Attica, IN
Elevation: 615 ft
Nearby Weather Stations

Elev 615 ft 40.35 °N, 87.21 °W | Updated 4 minutes ago

Partly Cloudy
Partly Cloudy
74.6 °F
Feels Like 73 °F
N
0.0
Wind Variable Wind from SW
Gusts 3.0 mph

Today
High -- | Low -- °F
--% Chance of Precip.
Yesterday
High -- | Low -- °F
Precip. -- in
7:17 AM 8:19 PM
First Quarter, 56% visible
Pressure 29.91 in
Visibility 10.0 miles
Clouds Few 3500 ft
Few 4800 ft
Scattered Clouds 6000 ft
Heat Index 73 °F
Dew Point 72 °F
Humidity 90%
Rainfall 0.24 in
Snow Depth Not available.
UV 0 out of 12
Pollen 3.50 out of 12
Air Quality Not available.
Flu Activity Not available.
METAR KLAF 022354Z 21003KT 10SM FEW035 FEW048 SCT060 23/21 A2992 RMK AO2 SLP127 60000 T02330206 10256 20233 55002 $

More Conditions Fewer Conditions

Pressure 29.91 in
Visibility 10.0 miles
Clouds Few 3500 ft
Few 4800 ft
Scattered Clouds 6000 ft
Heat Index 73 °F
Dew Point 72 °F
Humidity 90%
Rainfall 0.24 in
Snow Depth Not available.
UV 0 out of 12
Pollen 3.50 out of 12
Air Quality Not available.
Flu Activity Not available.
METAR KLAF 022354Z 21003KT 10SM FEW035 FEW048 SCT060 23/21 A2992 RMK AO2 SLP127 60000 T02330206 10256 20233 55002 $

More Conditions Fewer Conditions

10-Day Weather Forecast

Almanac

Astronomy

Sep. 02, 2014 Rise Set
Actual Time 7:17 AM EDT 8:19 PM EDT
Civil Twilight 6:49 AM EDT 8:46 PM EDT
Nautical Twilight 6:16 AM EDT 9:19 PM EDT
Astronomical Twilight 5:41 AM EDT 9:54 PM EDT
Moon 3:02 PM EDT (9/2) 12:20 AM EDT (9/2)
Length of Visible Light 13h 57m
Length of Day
13h 01m
Tomorrow will be 2m 33s shorter.
First Quarter, 56% of the Moon is Illuminated
Today
First Quarter
Sep 8
Full
Sep 15
Last Quarter
Sep 24
New
Oct 1
First Quarter

Today's Extremes

State Highs State Lows

Community

WunderPhotos

Upload Photos

1,749,807 photos uploaded!

Nearby

Snow Depth

Station Depth Elevation
No new snow has been reported.

Earthquake Activity

City Distance Mag. Time & Date
No recent earthquake activity has been reported nearby.
Minimum magnitude displayed is 2.5.

Coastal Water Temperatures

Place Temperature
No Stations Reporting

Nearby Weather Stations